This is the latest recevied weather packets stored in our database for station/object CA4LJZ-10. If no packets are shown the sender has not sent any weather packets the latest 10 day(s).
| Time | Temp. | Humidity | Pressure | Rain* | Wind** | Luminosity | Snow |
|---|---|---|---|---|---|---|---|
| 1777593206 | 21.67° C | 49% | 952.2 hPa | - | - | - | - |
| 1777592304 | 22.22° C | 51% | 952 hPa | - | - | - | - |
| 1777591643 | 20.56° C | 52% | 951.8 hPa | - | - | - | - |
| 1777591601 | 20.56° C | 52% | 951.8 hPa | - | - | - | - |
| 1777591432 | 20.56° C | 52% | 951.8 hPa | - | - | - | - |
| 1777590569 | 20° C | 54% | 951.5 hPa | - | - | - | - |
| 1777590531 | 20° C | 54% | 951.5 hPa | - | - | - | - |
| 1777589630 | 20° C | 53% | 951.3 hPa | - | - | - | - |
| 1777588730 | 20.56° C | 52% | 951 hPa | - | - | - | - |
| 1777587829 | 21.11° C | 50% | 950.8 hPa | - | - | - | - |
| 1777586928 | 21.67° C | 48% | 950.6 hPa | - | - | - | - |
| 1777586026 | 23.33° C | 44% | 950.2 hPa | - | - | - | - |
| 1777585126 | 26.11° C | 38% | 950.1 hPa | - | - | - | - |
| 1777584225 | 28.89° C | 31% | 949.9 hPa | - | - | - | - |
| 1777583320 | 29.44° C | 29% | 949.8 hPa | - | - | - | - |
| 1777582417 | 31.11° C | 27% | 949.7 hPa | - | - | - | - |
| 1777581516 | 31.67° C | 26% | 949.6 hPa | - | - | - | - |
| 1777580615 | 32.78° C | 26% | 949.5 hPa | - | - | - | - |
| 1777579715 | 33.33° C | 24% | 949.4 hPa | - | - | - | - |
| 1777578813 | 33.89° C | 24% | 949.4 hPa | - | - | - | - |
| 1777577913 | 33.89° C | 23% | 949.4 hPa | - | - | - | - |
| 1777577012 | 35° C | 23% | 949.4 hPa | - | - | - | - |
| 1777576111 | 35° C | 21% | 949.4 hPa | - | - | - | - |
| 1777575210 | 34.44° C | 22% | 949.2 hPa | - | - | - | - |
| 1777574309 | 35.56° C | 21% | 949.2 hPa | - | - | - | - |
* Rain since midnight (hover to see other rain measurements)
** Current wind speed in m/s (hover to see current wind gust speed)